sensor_id;sensor_type;location;lat;lon;timestamp;pressure;altitude;pressure_sealevel;temperature;humidity
64336;BME280;50672;53.362;-6.240;2022-08-01T00:00:06;101946.66;;;16.65;64.88
64336;BME280;50672;53.362;-6.240;2022-08-01T00:02:35;101958.03;;;16.62;64.96
64336;BME280;50672;53.362;-6.240;2022-08-01T00:05:09;101959.72;;;16.63;64.88
64336;BME280;50672;53.362;-6.240;2022-08-01T00:07:36;101957.84;;;16.64;64.84
64336;BME280;50672;53.362;-6.240;2022-08-01T00:10:05;101959.72;;;16.63;64.46
64336;BME280;50672;53.362;-6.240;2022-08-01T00:12:33;101959.06;;;16.61;64.50
64336;BME280;50672;53.362;-6.240;2022-08-01T00:14:59;101962.19;;;16.58;64.54
64336;BME280;50672;53.362;-6.240;2022-08-01T00:17:26;101960.47;;;16.57;64.35
64336;BME280;50672;53.362;-6.240;2022-08-01T00:19:55;101957.94;;;16.55;64.30
64336;BME280;50672;53.362;-6.240;2022-08-01T00:22:21;101951.19;;;16.58;64.10
64336;BME280;50672;53.362;-6.240;2022-08-01T00:24:48;101949.09;;;16.60;64.33
64336;BME280;50672;53.362;-6.240;2022-08-01T00:27:15;101948.06;;;16.61;64.20
64336;BME280;50672;53.362;-6.240;2022-08-01T00:29:42;101944.69;;;16.59;63.84
64336;BME280;50672;53.362;-6.240;2022-08-01T00:32:32;101954.97;;;16.57;64.02
64336;BME280;50672;53.362;-6.240;2022-08-01T00:35:05;101950.72;;;16.54;63.65
64336;BME280;50672;53.362;-6.240;2022-08-01T00:37:32;101948.53;;;16.50;63.63
64336;BME280;50672;53.362;-6.240;2022-08-01T00:39:59;101947.56;;;16.43;63.78
64336;BME280;50672;53.362;-6.240;2022-08-01T00:42:26;101939.84;;;16.38;63.67
64336;BME280;50672;53.362;-6.240;2022-08-01T00:44:53;101942.13;;;16.34;64.23
64336;BME280;50672;53.362;-6.240;2022-08-01T00:47:19;101947.50;;;16.28;64.04
64336;BME280;50672;53.362;-6.240;2022-08-01T00:49:46;101943.28;;;16.17;64.13
64336;BME280;50672;53.362;-6.240;2022-08-01T00:52:13;101941.94;;;16.13;64.44
64336;BME280;50672;53.362;-6.240;2022-08-01T00:54:40;101944.41;;;16.08;64.16
64336;BME280;50672;53.362;-6.240;2022-08-01T00:57:07;101948.91;;;16.00;64.26
64336;BME280;50672;53.362;-6.240;2022-08-01T00:59:36;101942.75;;;15.98;64.74
64336;BME280;50672;53.362;-6.240;2022-08-01T01:02:05;101942.25;;;15.95;64.45
64336;BME280;50672;53.362;-6.240;2022-08-01T01:04:41;101947.06;;;15.93;64.48
64336;BME280;50672;53.362;-6.240;2022-08-01T01:07:21;101949.31;;;15.89;64.64
64336;BME280;50672;53.362;-6.240;2022-08-01T01:12:47;101945.22;;;15.85;64.84
64336;BME280;50672;53.362;-6.240;2022-08-01T01:15:36;101942.66;;;15.83;64.57
64336;BME280;50672;53.362;-6.240;2022-08-01T01:18:13;101946.63;;;15.81;64.83
64336;BME280;50672;53.362;-6.240;2022-08-01T01:20:44;101941.47;;;15.78;65.19
64336;BME280;50672;53.362;-6.240;2022-08-01T01:25:51;101938.72;;;15.78;65.08
64336;BME280;50672;53.362;-6.240;2022-08-01T01:28:27;101929.47;;;15.79;65.40
64336;BME280;50672;53.362;-6.240;2022-08-01T01:30:57;101928.47;;;15.80;65.31
64336;BME280;50672;53.362;-6.240;2022-08-01T01:33:26;101932.38;;;15.77;65.52
64336;BME280;50672;53.362;-6.240;2022-08-01T01:35:59;101930.47;;;15.78;65.48
64336;BME280;50672;53.362;-6.240;2022-08-01T01:38:29;101923.28;;;15.77;65.53
64336;BME280;50672;53.362;-6.240;2022-08-01T01:40:59;101925.19;;;15.76;66.00
64336;BME280;50672;53.362;-6.240;2022-08-01T01:43:30;101920.53;;;15.77;65.77
64336;BME280;50672;53.362;-6.240;2022-08-01T01:45:59;101920.53;;;15.77;66.06
64336;BME280;50672;53.362;-6.240;2022-08-01T01:48:27;101924.69;;;15.72;65.84
64336;BME280;50672;53.362;-6.240;2022-08-01T01:51:03;101920.44;;;15.70;66.05
64336;BME280;50672;53.362;-6.240;2022-08-01T01:53:31;101916.16;;;15.67;66.25
64336;BME280;50672;53.362;-6.240;2022-08-01T01:56:00;101917.88;;;15.68;65.93
64336;BME280;50672;53.362;-6.240;2022-08-01T01:58:30;101920.94;;;15.65;66.05
64336;BME280;50672;53.362;-6.240;2022-08-01T02:00:59;101917.91;;;15.60;66.38
64336;BME280;50672;53.362;-6.240;2022-08-01T02:03:30;101922.72;;;15.58;66.02
64336;BME280;50672;53.362;-6.240;2022-08-01T02:06:04;101919.50;;;15.54;66.46
64336;BME280;50672;53.362;-6.240;2022-08-01T02:08:32;101918.78;;;15.52;66.43
64336;BME280;50672;53.362;-6.240;2022-08-01T02:11:03;101918.97;;;15.51;66.36
64336;BME280;50672;53.362;-6.240;2022-08-01T02:13:59;101927.56;;;15.48;66.38
64336;BME280;50672;53.362;-6.240;2022-08-01T02:16:29;101916.09;;;15.44;66.81
64336;BME280;50672;53.362;-6.240;2022-08-01T02:19:05;101921.09;;;15.41;66.91
64336;BME280;50672;53.362;-6.240;2022-08-01T02:21:38;101918.03;;;15.35;66.99
64336;BME280;50672;53.362;-6.240;2022-08-01T02:24:21;101913.94;;;15.31;66.99
64336;BME280;50672;53.362;-6.240;2022-08-01T02:26:59;101914.13;;;15.30;67.23
64336;BME280;50672;53.362;-6.240;2022-08-01T02:29:34;101914.78;;;15.32;67.03
64336;BME280;50672;53.362;-6.240;2022-08-01T02:32:25;101910.50;;;15.29;67.10
64336;BME280;50672;53.362;-6.240;2022-08-01T02:34:57;101905.00;;;15.29;67.43
64336;BME280;50672;53.362;-6.240;2022-08-01T02:37:33;101901.41;;;15.29;67.77
64336;BME280;50672;53.362;-6.240;2022-08-01T02:40:09;101902.25;;;15.29;67.72
64336;BME280;50672;53.362;-6.240;2022-08-01T02:42:43;101909.47;;;15.30;67.49
64336;BME280;50672;53.362;-6.240;2022-08-01T02:45:12;101900.22;;;15.31;68.06
64336;BME280;50672;53.362;-6.240;2022-08-01T02:47:41;101887.53;;;15.30;68.04
64336;BME280;50672;53.362;-6.240;2022-08-01T02:50:10;101893.00;;;15.30;68.04
64336;BME280;50672;53.362;-6.240;2022-08-01T02:52:40;101896.63;;;15.31;68.22
64336;BME280;50672;53.362;-6.240;2022-08-01T02:55:14;101895.75;;;15.30;68.52
64336;BME280;50672;53.362;-6.240;2022-08-01T02:57:45;101901.41;;;15.29;68.71
64336;BME280;50672;53.362;-6.240;2022-08-01T03:00:23;101904.16;;;15.29;68.44
64336;BME280;50672;53.362;-6.240;2022-08-01T03:02:52;101893.38;;;15.27;68.83
64336;BME280;50672;53.362;-6.240;2022-08-01T03:05:22;101887.03;;;15.27;68.64
64336;BME280;50672;53.362;-6.240;2022-08-01T03:07:51;101883.63;;;15.25;68.86
64336;BME280;50672;53.362;-6.240;2022-08-01T03:10:20;101895.78;;;15.22;69.13
64336;BME280;50672;53.362;-6.240;2022-08-01T03:12:48;101887.25;;;15.17;68.92
64336;BME280;50672;53.362;-6.240;2022-08-01T03:15:17;101889.69;;;15.12;69.23
64336;BME280;50672;53.362;-6.240;2022-08-01T03:17:46;101895.69;;;15.07;69.33
64336;BME280;50672;53.362;-6.240;2022-08-01T03:20:15;101902.91;;;15.00;69.50
64336;BME280;50672;53.362;-6.240;2022-08-01T03:22:44;101897.97;;;14.95;69.26
64336;BME280;50672;53.362;-6.240;2022-08-01T03:25:12;101897.97;;;14.87;69.63
64336;BME280;50672;53.362;-6.240;2022-08-01T03:27:42;101891.13;;;14.83;69.50
64336;BME280;50672;53.362;-6.240;2022-08-01T03:30:16;101885.00;;;14.81;69.59
64336;BME280;50672;53.362;-6.240;2022-08-01T03:32:50;101881.72;;;14.77;69.80
64336;BME280;50672;53.362;-6.240;2022-08-01T03:35:18;101890.13;;;14.76;70.28
64336;BME280;50672;53.362;-6.240;2022-08-01T03:37:47;101888.59;;;14.73;70.30
64336;BME280;50672;53.362;-6.240;2022-08-01T03:40:47;101887.41;;;14.67;70.36
64336;BME280;50672;53.362;-6.240;2022-08-01T03:43:21;101885.88;;;14.65;70.43
64336;BME280;50672;53.362;-6.240;2022-08-01T03:45:51;101888.78;;;14.63;70.55
64336;BME280;50672;53.362;-6.240;2022-08-01T03:48:22;101886.53;;;14.59;70.81
64336;BME280;50672;53.362;-6.240;2022-08-01T03:51:01;101888.75;;;14.55;70.58
64336;BME280;50672;53.362;-6.240;2022-08-01T03:53:31;101895.63;;;14.51;70.84
64336;BME280;50672;53.362;-6.240;2022-08-01T03:56:08;101895.97;;;14.48;71.18
64336;BME280;50672;53.362;-6.240;2022-08-01T03:58:38;101890.00;;;14.44;71.11
64336;BME280;50672;53.362;-6.240;2022-08-01T04:01:06;101893.75;;;14.43;71.24
64336;BME280;50672;53.362;-6.240;2022-08-01T04:03:42;101893.06;;;14.41;71.53
64336;BME280;50672;53.362;-6.240;2022-08-01T04:06:09;101888.13;;;14.36;71.44
64336;BME280;50672;53.362;-6.240;2022-08-01T04:08:38;101883.84;;;14.34;71.32
64336;BME280;50672;53.362;-6.240;2022-08-01T04:11:05;101877.88;;;14.30;71.47
64336;BME280;50672;53.362;-6.240;2022-08-01T04:13:38;101873.75;;;14.26;71.62
64336;BME280;50672;53.362;-6.240;2022-08-01T04:16:05;101881.28;;;14.24;72.01
64336;BME280;50672;53.362;-6.240;2022-08-01T04:18:32;101880.59;;;14.22;71.81
64336;BME280;50672;53.362;-6.240;2022-08-01T04:21:05;101878.19;;;14.19;71.97
64336;BME280;50672;53.362;-6.240;2022-08-01T04:23:34;101876.50;;;14.18;72.37
64336;BME280;50672;53.362;-6.240;2022-08-01T04:26:02;101878.53;;;14.16;72.41
64336;BME280;50672;53.362;-6.240;2022-08-01T04:28:33;101873.41;;;14.13;72.20
64336;BME280;50672;53.362;-6.240;2022-08-01T04:31:02;101876.66;;;14.08;72.30
64336;BME280;50672;53.362;-6.240;2022-08-01T04:33:32;101878.03;;;14.04;72.50
64336;BME280;50672;53.362;-6.240;2022-08-01T04:36:03;101881.25;;;13.99;72.74
64336;BME280;50672;53.362;-6.240;2022-08-01T04:38:34;101875.13;;;13.97;72.82
64336;BME280;50672;53.362;-6.240;2022-08-01T04:41:03;101878.88;;;13.96;72.91
64336;BME280;50672;53.362;-6.240;2022-08-01T04:43:35;101873.75;;;13.93;73.00
64336;BME280;50672;53.362;-6.240;2022-08-01T04:46:03;101854.75;;;13.92;72.93
64336;BME280;50672;53.362;-6.240;2022-08-01T04:48:32;101852.19;;;13.90;73.32
64336;BME280;50672;53.362;-6.240;2022-08-01T04:51:12;101844.34;;;13.87;73.17
64336;BME280;50672;53.362;-6.240;2022-08-01T04:53:42;101842.63;;;13.86;73.53
64336;BME280;50672;53.362;-6.240;2022-08-01T04:56:10;101852.88;;;13.84;73.56
64336;BME280;50672;53.362;-6.240;2022-08-01T04:58:46;101846.91;;;13.80;73.62
64336;BME280;50672;53.362;-6.240;2022-08-01T05:01:13;101838.84;;;13.79;73.76
64336;BME280;50672;53.362;-6.240;2022-08-01T05:03:40;101847.06;;;13.79;73.69
64336;BME280;50672;53.362;-6.240;2022-08-01T05:06:07;101854.22;;;13.80;73.81
64336;BME280;50672;53.362;-6.240;2022-08-01T05:08:33;101849.47;;;13.82;74.25
64336;BME280;50672;53.362;-6.240;2022-08-01T05:11:03;101858.50;;;13.82;74.15
64336;BME280;50672;53.362;-6.240;2022-08-01T05:13:30;101852.00;;;13.83;74.32
64336;BME280;50672;53.362;-6.240;2022-08-01T05:15:57;101852.00;;;13.83;74.32
64336;BME280;50672;53.362;-6.240;2022-08-01T05:18:24;101860.41;;;13.82;74.58
64336;BME280;50672;53.362;-6.240;2022-08-01T05:20:54;101871.69;;;13.79;74.73
64336;BME280;50672;53.362;-6.240;2022-08-01T05:23:21;101872.88;;;13.76;74.87
64336;BME280;50672;53.362;-6.240;2022-08-01T05:26:09;101878.19;;;13.78;74.62
64336;BME280;50672;53.362;-6.240;2022-08-01T05:28:42;101878.00;;;13.79;74.89
64336;BME280;50672;53.362;-6.240;2022-08-01T05:31:09;101877.84;;;13.81;75.46
64336;BME280;50672;53.362;-6.240;2022-08-01T05:33:36;101878.03;;;13.88;75.31
64336;BME280;50672;53.362;-6.240;2022-08-01T05:36:09;101873.75;;;13.93;75.68
64336;BME280;50672;53.362;-6.240;2022-08-01T05:38:36;101875.97;;;13.98;75.69
64336;BME280;50672;53.362;-6.240;2022-08-01T05:41:03;101879.06;;;14.03;75.95
64336;BME280;50672;53.362;-6.240;2022-08-01T05:43:30;101872.03;;;14.09;75.75
64336;BME280;50672;53.362;-6.240;2022-08-01T05:45:57;101861.44;;;14.06;75.68
64336;BME280;50672;53.362;-6.240;2022-08-01T05:48:24;101855.97;;;14.06;75.82
64336;BME280;50672;53.362;-6.240;2022-08-01T05:50:51;101848.09;;;14.11;76.07
64336;BME280;50672;53.362;-6.240;2022-08-01T05:53:24;101862.28;;;14.14;76.04
64336;BME280;50672;53.362;-6.240;2022-08-01T05:55:51;101855.25;;;14.20;76.08
64336;BME280;50672;53.362;-6.240;2022-08-01T05:58:17;101855.59;;;14.25;76.12
64336;BME280;50672;53.362;-6.240;2022-08-01T06:00:44;101847.72;;;14.30;76.30
64336;BME280;50672;53.362;-6.240;2022-08-01T06:03:11;101839.00;;;14.35;76.32
64336;BME280;50672;53.362;-6.240;2022-08-01T06:05:44;101837.78;;;14.38;76.31
64336;BME280;50672;53.362;-6.240;2022-08-01T06:08:11;101844.63;;;14.42;76.26
64336;BME280;50672;53.362;-6.240;2022-08-01T06:10:38;101836.25;;;14.43;76.07
64336;BME280;50672;53.362;-6.240;2022-08-01T06:13:11;101826.13;;;14.44;75.76
64336;BME280;50672;53.362;-6.240;2022-08-01T06:15:38;101834.34;;;14.44;76.08
64336;BME280;50672;53.362;-6.240;2022-08-01T06:18:05;101832.47;;;14.44;76.04
64336;BME280;50672;53.362;-6.240;2022-08-01T06:20:32;101828.50;;;14.47;76.00
64336;BME280;50672;53.362;-6.240;2022-08-01T06:22:59;101829.38;;;14.47;75.81
64336;BME280;50672;53.362;-6.240;2022-08-01T06:25:27;101829.19;;;14.49;75.89
64336;BME280;50672;53.362;-6.240;2022-08-01T06:28:00;101823.53;;;14.50;75.92
64336;BME280;50672;53.362;-6.240;2022-08-01T06:30:27;101831.22;;;14.55;75.94
64336;BME280;50672;53.362;-6.240;2022-08-01T06:32:54;101831.75;;;14.59;75.83
64336;BME280;50672;53.362;-6.240;2022-08-01T06:35:27;101825.06;;;14.61;75.72
64336;BME280;50672;53.362;-6.240;2022-08-01T06:37:57;101823.03;;;14.63;76.02
64336;BME280;50672;53.362;-6.240;2022-08-01T06:40:24;101826.28;;;14.67;75.90
64336;BME280;50672;53.362;-6.240;2022-08-01T06:42:51;101822.34;;;14.69;75.78
64336;BME280;50672;53.362;-6.240;2022-08-01T06:45:17;101821.97;;;14.73;75.73
64336;BME280;50672;53.362;-6.240;2022-08-01T06:47:45;101810.00;;;14.74;75.91
64336;BME280;50672;53.362;-6.240;2022-08-01T06:50:18;101809.63;;;14.77;75.58
64336;BME280;50672;53.362;-6.240;2022-08-01T06:52:45;101813.91;;;14.79;75.57
64336;BME280;50672;53.362;-6.240;2022-08-01T06:55:12;101816.81;;;14.78;75.47
64336;BME280;50672;53.362;-6.240;2022-08-01T06:57:51;101806.34;;;14.81;75.28
64336;BME280;50672;53.362;-6.240;2022-08-01T07:00:20;101810.63;;;14.84;75.56
64336;BME280;50672;53.362;-6.240;2022-08-01T07:02:58;101806.84;;;14.85;75.39
64336;BME280;50672;53.362;-6.240;2022-08-01T07:05:26;101805.66;;;14.88;75.21
64336;BME280;50672;53.362;-6.240;2022-08-01T07:07:53;101813.31;;;14.92;75.36
64336;BME280;50672;53.362;-6.240;2022-08-01T07:10:20;101813.81;;;14.96;75.07
64336;BME280;50672;53.362;-6.240;2022-08-01T07:12:47;101824.75;;;15.04;75.17
64336;BME280;50672;53.362;-6.240;2022-08-01T07:15:14;101813.06;;;15.10;75.10
64336;BME280;50672;53.362;-6.240;2022-08-01T07:17:42;101813.41;;;15.15;75.12
64336;BME280;50672;53.362;-6.240;2022-08-01T07:20:11;101818.88;;;15.15;74.73
64336;BME280;50672;53.362;-6.240;2022-08-01T07:22:41;101819.34;;;15.19;75.01
64336;BME280;50672;53.362;-6.240;2022-08-01T07:25:16;101821.56;;;15.24;74.88
64336;BME280;50672;53.362;-6.240;2022-08-01T07:27:43;101817.59;;;15.26;74.47
64336;BME280;50672;53.362;-6.240;2022-08-01T07:30:11;101812.81;;;15.28;74.58
64336;BME280;50672;53.362;-6.240;2022-08-01T07:32:45;101805.91;;;15.32;74.54
64336;BME280;50672;53.362;-6.240;2022-08-01T07:35:11;101810.34;;;15.33;74.58
64336;BME280;50672;53.362;-6.240;2022-08-01T07:37:38;101810.84;;;15.37;74.40
64336;BME280;50672;53.362;-6.240;2022-08-01T07:40:17;101808.44;;;15.42;74.16
64336;BME280;50672;53.362;-6.240;2022-08-01T07:42:44;101815.06;;;15.48;74.17
64336;BME280;50672;53.362;-6.240;2022-08-01T07:45:12;101816.88;;;15.55;74.06
64336;BME280;50672;53.362;-6.240;2022-08-01T07:47:39;101813.25;;;15.63;74.50
64336;BME280;50672;53.362;-6.240;2022-08-01T07:50:06;101815.25;;;15.69;74.41
64336;BME280;50672;53.362;-6.240;2022-08-01T07:52:33;101818.13;;;15.76;74.12
64336;BME280;50672;53.362;-6.240;2022-08-01T07:55:00;101818.47;;;15.81;73.87
64336;BME280;50672;53.362;-6.240;2022-08-01T07:57:27;101809.00;;;15.84;74.19
64336;BME280;50672;53.362;-6.240;2022-08-01T07:59:54;101804.16;;;15.86;73.88
64336;BME280;50672;53.362;-6.240;2022-08-01T08:02:21;101793.69;;;15.89;73.77
64336;BME280;50672;53.362;-6.240;2022-08-01T08:04:48;101796.69;;;15.95;73.31
64336;BME280;50672;53.362;-6.240;2022-08-01T08:07:15;101801.66;;;15.99;72.87
64336;BME280;50672;53.362;-6.240;2022-08-01T08:09:42;101795.22;;;16.07;72.41
64336;BME280;50672;53.362;-6.240;2022-08-01T08:12:09;101792.41;;;16.15;72.18
64336;BME280;50672;53.362;-6.240;2022-08-01T08:14:36;101783.69;;;16.27;72.40
64336;BME280;50672;53.362;-6.240;2022-08-01T08:17:05;101794.22;;;16.38;72.30
64336;BME280;50672;53.362;-6.240;2022-08-01T08:19:32;101783.63;;;16.50;71.96
64336;BME280;50672;53.362;-6.240;2022-08-01T08:22:05;101790.44;;;16.69;71.79
64336;BME280;50672;53.362;-6.240;2022-08-01T08:24:32;101781.78;;;16.87;71.52
64336;BME280;50672;53.362;-6.240;2022-08-01T08:27:00;101785.22;;;17.04;71.06
64336;BME280;50672;53.362;-6.240;2022-08-01T08:29:29;101784.03;;;17.13;70.73
64336;BME280;50672;53.362;-6.240;2022-08-01T08:31:59;101780.31;;;17.21;70.56
64336;BME280;50672;53.362;-6.240;2022-08-01T08:34:27;101773.28;;;17.33;70.71
64336;BME280;50672;53.362;-6.240;2022-08-01T08:36:55;101758.59;;;17.48;70.77
64336;BME280;50672;53.362;-6.240;2022-08-01T08:39:25;101761.13;;;17.49;70.50
64336;BME280;50672;53.362;-6.240;2022-08-01T08:41:52;101764.09;;;17.48;70.32
64336;BME280;50672;53.362;-6.240;2022-08-01T08:44:19;101764.94;;;17.48;69.68
64336;BME280;50672;53.362;-6.240;2022-08-01T08:46:50;101754.84;;;17.55;69.64
64336;BME280;50672;53.362;-6.240;2022-08-01T08:49:24;101756.47;;;17.71;69.37
64336;BME280;50672;53.362;-6.240;2022-08-01T08:51:52;101761.91;;;17.86;69.27
64336;BME280;50672;53.362;-6.240;2022-08-01T08:54:21;101758.91;;;18.09;68.85
64336;BME280;50672;53.362;-6.240;2022-08-01T08:56:58;101758.34;;;18.21;68.12
64336;BME280;50672;53.362;-6.240;2022-08-01T08:59:26;101741.22;;;18.25;67.75
64336;BME280;50672;53.362;-6.240;2022-08-01T09:01:54;101739.97;;;18.28;67.37
64336;BME280;50672;53.362;-6.240;2022-08-01T09:04:21;101741.44;;;18.31;66.75
64336;BME280;50672;53.362;-6.240;2022-08-01T09:06:52;101745.97;;;18.38;66.23
64336;BME280;50672;53.362;-6.240;2022-08-01T09:09:20;101745.34;;;18.43;66.40
64336;BME280;50672;53.362;-6.240;2022-08-01T09:11:47;101750.97;;;18.63;65.81
64336;BME280;50672;53.362;-6.240;2022-08-01T09:14:24;101735.34;;;18.84;65.34
64336;BME280;50672;53.362;-6.240;2022-08-01T09:17:07;101742.66;;;18.98;65.09
64336;BME280;50672;53.362;-6.240;2022-08-01T09:19:41;101746.31;;;19.12;64.56
64336;BME280;50672;53.362;-6.240;2022-08-01T09:22:12;101741.69;;;19.26;63.79
64336;BME280;50672;53.362;-6.240;2022-08-01T09:24:39;101744.47;;;19.46;63.13
64336;BME280;50672;53.362;-6.240;2022-08-01T09:27:20;101734.91;;;19.55;62.89
64336;BME280;50672;53.362;-6.240;2022-08-01T09:29:52;101744.06;;;19.62;62.30
64336;BME280;50672;53.362;-6.240;2022-08-01T09:32:30;101733.00;;;19.62;62.27
64336;BME280;50672;53.362;-6.240;2022-08-01T09:35:24;101732.78;;;19.64;61.92
64336;BME280;50672;53.362;-6.240;2022-08-01T09:38:20;101717.94;;;19.85;61.46
64336;BME280;50672;53.362;-6.240;2022-08-01T09:40:55;101711.34;;;19.93;61.52
64336;BME280;50672;53.362;-6.240;2022-08-01T09:43:26;101711.09;;;20.14;61.53
64336;BME280;50672;53.362;-6.240;2022-08-01T09:45:57;101713.41;;;20.31;61.20
64336;BME280;50672;53.362;-6.240;2022-08-01T09:48:24;101712.03;;;20.54;60.46
64336;BME280;50672;53.362;-6.240;2022-08-01T09:50:54;101711.13;;;20.73;60.13
64336;BME280;50672;53.362;-6.240;2022-08-01T09:53:40;101697.69;;;20.83;60.16
64336;BME280;50672;53.362;-6.240;2022-08-01T09:56:16;101702.53;;;20.95;60.01
64336;BME280;50672;53.362;-6.240;2022-08-01T10:01:24;101697.66;;;21.22;59.29
64336;BME280;50672;53.362;-6.240;2022-08-01T10:04:12;101689.03;;;21.37;58.94
64336;BME280;50672;53.362;-6.240;2022-08-01T10:06:42;101681.34;;;21.39;59.31
64336;BME280;50672;53.362;-6.240;2022-08-01T10:09:12;101680.63;;;21.50;59.42
64336;BME280;50672;53.362;-6.240;2022-08-01T10:11:43;101683.28;;;21.64;59.74
64336;BME280;50672;53.362;-6.240;2022-08-01T10:14:11;101682.72;;;21.80;59.89
64336;BME280;50672;53.362;-6.240;2022-08-01T10:16:45;101683.38;;;22.01;59.94
64336;BME280;50672;53.362;-6.240;2022-08-01T10:19:21;101675.22;;;22.25;60.21
64336;BME280;50672;53.362;-6.240;2022-08-01T10:21:53;101678.47;;;22.40;60.20
64336;BME280;50672;53.362;-6.240;2022-08-01T10:24:27;101673.22;;;22.50;59.94
64336;BME280;50672;53.362;-6.240;2022-08-01T10:26:57;101668.03;;;22.73;60.12
64336;BME280;50672;53.362;-6.240;2022-08-01T10:29:41;101665.66;;;22.88;59.93
64336;BME280;50672;53.362;-6.240;2022-08-01T10:32:25;101665.84;;;23.05;59.37
64336;BME280;50672;53.362;-6.240;2022-08-01T10:34:54;101654.22;;;23.27;59.17
64336;BME280;50672;53.362;-6.240;2022-08-01T10:37:22;101649.78;;;23.49;58.74
64336;BME280;50672;53.362;-6.240;2022-08-01T10:39:53;101636.25;;;23.65;58.58
64336;BME280;50672;53.362;-6.240;2022-08-01T10:42:44;101635.88;;;23.73;58.38
64336;BME280;50672;53.362;-6.240;2022-08-01T10:45:13;101631.53;;;23.77;58.03
64336;BME280;50672;53.362;-6.240;2022-08-01T10:48:00;101629.13;;;23.69;57.38
64336;BME280;50672;53.362;-6.240;2022-08-01T10:50:46;101636.16;;;23.60;57.14
64336;BME280;50672;53.362;-6.240;2022-08-01T10:53:22;101623.31;;;23.47;57.13
64336;BME280;50672;53.362;-6.240;2022-08-01T10:56:08;101622.84;;;23.50;57.26
64336;BME280;50672;53.362;-6.240;2022-08-01T10:58:42;101626.34;;;23.45;56.89
64336;BME280;50672;53.362;-6.240;2022-08-01T11:01:16;101617.03;;;23.40;57.18
64336;BME280;50672;53.362;-6.240;2022-08-01T11:06:40;101610.50;;;23.22;56.99
64336;BME280;50672;53.362;-6.240;2022-08-01T11:12:12;101602.47;;;23.02;57.67
64336;BME280;50672;53.362;-6.240;2022-08-01T11:17:38;101589.16;;;22.80;58.25
64336;BME280;50672;53.362;-6.240;2022-08-01T11:20:14;101593.59;;;22.81;58.71
64336;BME280;50672;53.362;-6.240;2022-08-01T11:28:35;101576.09;;;22.81;58.88
64336;BME280;50672;53.362;-6.240;2022-08-01T11:41:40;101560.66;;;22.24;59.46
64336;BME280;50672;53.362;-6.240;2022-08-01T11:52:17;101555.09;;;21.94;57.44
64336;BME280;50672;53.362;-6.240;2022-08-01T11:54:51;101552.09;;;21.95;57.06
64336;BME280;50672;53.362;-6.240;2022-08-01T11:57:27;101544.00;;;21.94;56.70
64336;BME280;50672;53.362;-6.240;2022-08-01T12:00:22;101539.06;;;21.96;56.56
64336;BME280;50672;53.362;-6.240;2022-08-01T12:03:04;101540.75;;;21.97;56.71
64336;BME280;50672;53.362;-6.240;2022-08-01T12:05:34;101535.06;;;21.92;56.71
64336;BME280;50672;53.362;-6.240;2022-08-01T12:08:08;101532.59;;;21.83;56.50
64336;BME280;50672;53.362;-6.240;2022-08-01T12:10:36;101528.50;;;21.86;56.55
64336;BME280;50672;53.362;-6.240;2022-08-01T12:13:15;101532.16;;;21.87;56.88
64336;BME280;50672;53.362;-6.240;2022-08-01T12:15:43;101528.28;;;21.88;56.94
64336;BME280;50672;53.362;-6.240;2022-08-01T12:18:10;101525.66;;;21.93;57.14
64336;BME280;50672;53.362;-6.240;2022-08-01T12:20:39;101515.09;;;22.01;57.12
64336;BME280;50672;53.362;-6.240;2022-08-01T12:23:22;101506.22;;;22.11;57.30
64336;BME280;50672;53.362;-6.240;2022-08-01T12:25:52;101509.50;;;22.20;56.99
64336;BME280;50672;53.362;-6.240;2022-08-01T12:28:20;101515.91;;;22.21;56.93
64336;BME280;50672;53.362;-6.240;2022-08-01T12:30:48;101501.91;;;22.15;56.94
64336;BME280;50672;53.362;-6.240;2022-08-01T12:33:18;101498.28;;;22.15;56.59
64336;BME280;50672;53.362;-6.240;2022-08-01T12:35:46;101492.41;;;22.23;56.69
64336;BME280;50672;53.362;-6.240;2022-08-01T12:38:15;101492.94;;;22.32;56.47
64336;BME280;50672;53.362;-6.240;2022-08-01T12:40:45;101492.63;;;22.40;56.74
64336;BME280;50672;53.362;-6.240;2022-08-01T12:43:20;101488.06;;;22.46;56.45
64336;BME280;50672;53.362;-6.240;2022-08-01T12:45:55;101487.81;;;22.47;56.54
64336;BME280;50672;53.362;-6.240;2022-08-01T12:48:24;101483.88;;;22.55;56.43
64336;BME280;50672;53.362;-6.240;2022-08-01T12:50:52;101481.22;;;22.72;56.40
64336;BME280;50672;53.362;-6.240;2022-08-01T12:53:20;101478.47;;;22.96;56.35
64336;BME280;50672;53.362;-6.240;2022-08-01T12:55:49;101473.53;;;23.10;56.11
64336;BME280;50672;53.362;-6.240;2022-08-01T12:58:30;101470.28;;;23.13;55.84
64336;BME280;50672;53.362;-6.240;2022-08-01T13:01:06;101467.97;;;23.10;55.69
64336;BME280;50672;53.362;-6.240;2022-08-01T13:03:34;101465.44;;;23.08;55.56
64336;BME280;50672;53.362;-6.240;2022-08-01T13:06:10;101458.66;;;22.92;55.68
64336;BME280;50672;53.362;-6.240;2022-08-01T13:08:37;101447.44;;;22.87;55.68
64336;BME280;50672;53.362;-6.240;2022-08-01T13:11:12;101448.78;;;22.96;55.73
64336;BME280;50672;53.362;-6.240;2022-08-01T13:13:51;101446.50;;;22.93;55.51
64336;BME280;50672;53.362;-6.240;2022-08-01T13:16:20;101431.75;;;22.81;55.75
64336;BME280;50672;53.362;-6.240;2022-08-01T13:19:07;101433.19;;;22.60;56.00
64336;BME280;50672;53.362;-6.240;2022-08-01T13:21:34;101432.31;;;22.47;56.03
64336;BME280;50672;53.362;-6.240;2022-08-01T13:24:28;101434.84;;;22.37;56.39
64336;BME280;50672;53.362;-6.240;2022-08-01T13:29:35;101433.66;;;22.14;56.90
64336;BME280;50672;53.362;-6.240;2022-08-01T13:32:14;101427.09;;;21.97;57.40
64336;BME280;50672;53.362;-6.240;2022-08-01T13:35:10;101430.19;;;21.89;57.77
64336;BME280;50672;53.362;-6.240;2022-08-01T13:37:41;101422.59;;;21.84;58.08
64336;BME280;50672;53.362;-6.240;2022-08-01T13:40:10;101414.13;;;21.79;58.50
64336;BME280;50672;53.362;-6.240;2022-08-01T13:42:37;101422.91;;;21.76;58.95
64336;BME280;50672;53.362;-6.240;2022-08-01T13:45:05;101420.72;;;21.66;59.05